Time;durP1;ratioP1;P1;durP2;ratioP2;P2;SDS_P1;SDS_P2;PMS_P1;PMS_P2;Temp;Humidity;BMP_temperature;BMP_pressure;BME280_temperature;BME280_humidity;BME280_pressure;Samples;Min_cycle;Max_cycle;Signal;HPM_P1;HPM_P2
2022/02/15 00:01:01;;;;;;;0.20;0.20;;;;;;;6.15;100.00;99006.09;5074887;28;20063;-88
2022/02/15 00:04:05;;;;;;;0.20;0.20;;;;;;;6.24;100.00;99014.34;5081100;22;20067;-58
2022/02/15 00:07:08;;;;;;;0.20;0.20;;;;;;;6.22;100.00;99023.09;5063282;28;20055;-59
2022/02/15 00:10:12;;;;;;;0.30;0.30;;;;;;;6.15;100.00;99020.66;5074477;28;20051;-59
2022/02/15 00:13:15;;;;;;;0.22;0.20;;;;;;;6.11;100.00;99017.28;5074104;28;20055;-50
2022/02/15 00:16:19;;;;;;;0.55;0.43;;;;;;;6.11;100.00;99012.53;5074032;28;20114;-49
2022/02/15 00:19:22;;;;;;;0.25;0.25;;;;;;;6.09;100.00;99012.22;5073394;28;20396;-49
2022/02/15 00:22:26;;;;;;;0.20;0.20;;;;;;;6.07;100.00;99014.69;5073920;28;20059;-49
2022/02/15 00:25:30;;;;;;;0.30;0.30;;;;;;;5.90;100.00;99012.75;5073348;28;20051;-49
2022/02/15 00:28:34;;;;;;;0.40;0.28;;;;;;;5.71;100.00;99030.56;5074078;28;20047;-49
2022/02/15 00:31:37;;;;;;;1.48;1.38;;;;;;;5.51;100.00;99028.28;5073948;28;20411;-49
2022/02/15 00:34:41;;;;;;;0.10;0.10;;;;;;;5.37;100.00;99026.16;5074186;28;20153;-49
2022/02/15 00:37:46;;;;;;;0.50;0.40;;;;;;;5.25;100.00;99018.78;5073773;28;20039;-49
2022/02/15 00:40:50;;;;;;;0.25;0.25;;;;;;;5.12;100.00;99007.88;5055551;28;20051;-49
2022/02/15 00:43:54;;;;;;;0.73;0.73;;;;;;;4.99;100.00;99012.00;5053787;28;20048;-49
2022/02/15 00:46:58;;;;;;;2.17;0.50;;;;;;;4.91;100.00;99019.06;5060690;28;20487;-49
2022/02/15 00:50:02;;;;;;;0.20;0.20;;;;;;;4.85;100.00;99018.88;5073284;28;20063;-49
2022/02/15 00:53:06;;;;;;;2.15;0.45;;;;;;;4.74;100.00;99023.31;5073524;28;20055;-49
2022/02/15 00:56:10;;;;;;;0.30;0.30;;;;;;;4.63;100.00;99028.50;5073158;28;20059;-49
2022/02/15 00:59:13;;;;;;;0.10;0.10;;;;;;;4.51;100.00;99008.84;5073401;28;20060;-49
2022/02/15 01:02:16;;;;;;;0.10;0.10;;;;;;;4.44;100.00;99013.88;5072968;28;20059;-49
2022/02/15 01:05:20;;;;;;;0.55;0.55;;;;;;;4.40;100.00;99011.25;5073101;28;20055;-49
2022/02/15 01:08:23;;;;;;;0.20;0.20;;;;;;;4.33;100.00;99017.03;5073238;28;20052;-49
2022/02/15 01:11:26;;;;;;;1.55;0.50;;;;;;;4.25;100.00;99012.25;5073181;28;20056;-50
2022/02/15 01:14:30;;;;;;;0.10;0.10;;;;;;;4.17;100.00;99014.53;5073356;28;20582;-49
2022/02/15 01:17:33;;;;;;;0.17;0.17;;;;;;;4.08;100.00;99009.00;5061777;28;20043;-49
2022/02/15 01:20:38;;;;;;;1.67;0.85;;;;;;;4.02;100.00;99021.03;5051744;28;20396;-49
2022/02/15 01:23:43;;;;;;;0.20;0.20;;;;;;;3.99;100.00;99022.72;5051890;28;20582;-49
2022/02/15 01:26:47;;;;;;;0.10;0.10;;;;;;;3.94;100.00;99006.78;5051399;28;20048;-49
2022/02/15 01:29:50;;;;;;;1.45;0.63;;;;;;;3.81;100.00;99006.09;5050834;28;20048;-49
2022/02/15 01:32:54;;;;;;;1.48;0.47;;;;;;;3.77;100.00;99013.69;5051458;28;20699;-49
2022/02/15 01:36:00;;;;;;;0.38;0.38;;;;;;;3.74;100.00;99003.59;5051268;28;20051;-49
2022/02/15 01:39:04;;;;;;;1.35;0.40;;;;;;;3.68;100.00;99008.91;5049970;28;20495;-49
2022/02/15 01:42:08;;;;;;;0.30;0.30;;;;;;;3.62;100.00;99009.94;5049339;28;20051;-49
2022/02/15 01:45:13;;;;;;;0.50;0.47;;;;;;;3.59;100.00;99002.59;5050068;28;20072;-49
2022/02/15 01:48:16;;;;;;;0.20;0.20;;;;;;;3.55;100.00;99004.72;5070554;28;20056;-50
2022/02/15 01:51:20;;;;;;;0.30;0.30;;;;;;;3.47;100.00;99008.91;5072569;28;20051;-49
2022/02/15 01:54:24;;;;;;;0.10;0.10;;;;;;;3.45;100.00;99014.09;5072487;28;20123;-49
2022/02/15 01:57:28;;;;;;;0.10;0.10;;;;;;;3.41;100.00;99018.97;5071999;28;20063;-49
2022/02/15 02:00:31;;;;;;;0.10;0.10;;;;;;;3.40;100.00;99028.47;5071962;28;20059;-49
2022/02/15 02:03:35;;;;;;;0.55;0.47;;;;;;;3.37;100.00;99024.63;5071927;28;20067;-50
2022/02/15 02:06:39;;;;;;;0.22;0.22;;;;;;;3.34;100.00;99003.47;5071268;28;20044;-49
2022/02/15 02:09:43;;;;;;;0.15;0.15;;;;;;;3.32;100.00;99005.13;5071780;28;20063;-51
2022/02/15 02:12:47;;;;;;;0.17;0.17;;;;;;;3.30;100.00;99013.06;5072115;28;20074;-50
2022/02/15 02:15:51;;;;;;;0.30;0.30;;;;;;;3.28;100.00;99004.50;5072471;28;20056;-60
2022/02/15 02:18:54;;;;;;;9.05;0.35;;;;;;;3.19;100.00;98990.66;5071846;28;20052;-50
2022/02/15 02:22:01;;;;;;;0.10;0.10;;;;;;;3.14;100.00;98994.00;5072370;28;20052;-49
2022/02/15 02:25:05;;;;;;;0.52;0.20;;;;;;;3.15;100.00;98987.28;5072215;28;20051;-50
2022/02/15 02:28:10;;;;;;;0.20;0.20;;;;;;;3.13;100.00;98975.97;5072422;28;20048;-49
2022/02/15 02:31:13;;;;;;;0.20;0.20;;;;;;;3.10;100.00;98963.13;5072550;28;20376;-49
2022/02/15 02:34:17;;;;;;;0.30;0.30;;;;;;;3.06;100.00;98960.47;5072196;28;20055;-49
2022/02/15 02:37:22;;;;;;;0.15;0.10;;;;;;;2.98;100.00;98946.22;5072360;28;20048;-49
2022/02/15 02:40:26;;;;;;;1.33;0.77;;;;;;;2.87;100.00;98948.56;5071312;28;20408;-49
2022/02/15 02:43:30;;;;;;;0.30;0.30;;;;;;;2.92;100.00;98964.47;5071640;28;20059;-53
2022/02/15 02:46:34;;;;;;;0.68;0.43;;;;;;;3.04;100.00;98957.41;5071819;28;20463;-49
2022/02/15 02:49:37;;;;;;;0.20;0.20;;;;;;;3.02;100.00;98944.09;5074392;28;20349;-49
2022/02/15 02:52:41;;;;;;;1.08;0.80;;;;;;;2.98;100.00;98957.22;5075737;28;20048;-49
2022/02/15 02:55:45;;;;;;;0.30;0.30;;;;;;;2.96;100.00;98956.13;5075641;28;20119;-50
2022/02/15 02:58:48;;;;;;;0.30;0.30;;;;;;;3.07;100.00;98957.25;5075962;28;20051;-49
2022/02/15 03:01:52;;;;;;;0.22;0.22;;;;;;;3.14;100.00;98950.00;5075219;28;20056;-50
2022/02/15 03:04:55;;;;;;;0.43;0.35;;;;;;;3.15;100.00;98951.53;5075674;28;20047;-50
2022/02/15 03:07:58;;;;;;;0.65;0.60;;;;;;;3.10;100.00;98936.34;5074140;28;20047;-50
2022/02/15 03:11:02;;;;;;;0.20;0.20;;;;;;;3.13;100.00;98937.44;5075453;28;20047;-50
2022/02/15 03:14:06;;;;;;;0.30;0.30;;;;;;;3.23;100.00;98953.56;5075430;28;20389;-50
2022/02/15 03:17:10;;;;;;;0.40;0.40;;;;;;;3.27;100.00;98932.19;5074303;28;20044;-50
2022/02/15 03:20:14;;;;;;;3.00;1.65;;;;;;;3.38;100.00;98931.81;5075439;28;20051;-50
2022/02/15 03:23:18;;;;;;;0.50;0.50;;;;;;;3.54;100.00;98915.84;5074531;28;20051;-49
2022/02/15 03:26:22;;;;;;;0.30;0.30;;;;;;;3.58;100.00;98913.75;5075028;28;20056;-49
2022/02/15 03:29:26;;;;;;;0.52;0.52;;;;;;;3.59;100.00;98907.03;5075642;28;20372;-50
2022/02/15 03:32:29;;;;;;;0.55;0.25;;;;;;;3.76;100.00;98904.81;5074471;28;20098;-49
2022/02/15 03:35:32;;;;;;;0.17;0.17;;;;;;;3.88;100.00;98895.66;5074501;28;20051;-49
2022/02/15 03:38:36;;;;;;;0.13;0.13;;;;;;;3.99;100.00;98887.75;5075358;28;20059;-49
2022/02/15 03:45:02;;;;;;;0.13;0.13;;;;;;;3.95;100.00;98859.56;5055059;28;20127;-49
2022/02/15 03:48:07;;;;;;;0.25;0.25;;;;;;;3.95;100.00;98856.81;5071690;28;20438;-49
2022/02/15 03:51:10;;;;;;;0.50;0.50;;;;;;;3.95;100.00;98862.34;5075069;28;20067;-49
2022/02/15 03:54:14;;;;;;;0.28;0.28;;;;;;;4.00;100.00;98861.75;5075124;28;20051;-49
2022/02/15 03:57:17;;;;;;;2.55;0.85;;;;;;;4.04;100.00;98856.84;5073974;28;20052;-49
2022/02/15 04:00:21;;;;;;;0.10;0.10;;;;;;;4.11;100.00;98851.06;5074038;28;20060;-49
2022/02/15 04:03:24;;;;;;;0.10;0.10;;;;;;;4.20;100.00;98842.78;5074453;28;20056;-49
2022/02/15 04:06:27;;;;;;;0.13;0.13;;;;;;;4.33;100.00;98848.94;5074747;28;20051;-49
2022/02/15 04:09:31;;;;;;;0.20;0.20;;;;;;;4.47;100.00;98851.09;5074591;28;20047;-49
2022/02/15 04:12:34;;;;;;;0.15;0.15;;;;;;;4.65;100.00;98849.56;5061239;28;20067;-49
2022/02/15 04:15:38;;;;;;;0.10;0.10;;;;;;;4.76;100.00;98841.59;5054505;28;20044;-49
2022/02/15 04:18:43;;;;;;;0.15;0.15;;;;;;;4.81;100.00;98832.72;5074471;28;20384;-49
2022/02/15 04:21:47;;;;;;;0.10;0.10;;;;;;;4.88;100.00;98835.13;5074391;28;20055;-49
2022/02/15 04:24:50;;;;;;;0.10;0.10;;;;;;;4.86;100.00;98821.81;5073557;28;20067;-49
2022/02/15 04:27:54;;;;;;;0.20;0.20;;;;;;;4.97;100.00;98826.84;5074235;28;20047;-49
2022/02/15 04:30:57;;;;;;;0.20;0.20;;;;;;;5.00;100.00;98825.94;5074321;28;20110;-49
2022/02/15 04:34:00;;;;;;;0.20;0.20;;;;;;;5.08;100.00;98807.81;5073237;28;20048;-49
2022/02/15 04:37:04;;;;;;;0.22;0.22;;;;;;;5.13;100.00;98804.44;5073742;28;20042;-49
2022/02/15 04:40:08;;;;;;;0.10;0.10;;;;;;;5.20;100.00;98804.09;5073776;28;20067;-49
2022/02/15 04:43:11;;;;;;;0.40;0.40;;;;;;;5.28;100.00;98789.50;5055028;28;20504;-49
2022/02/15 04:46:14;;;;;;;0.47;0.30;;;;;;;5.36;100.00;98765.09;5055134;28;20064;-49
2022/02/15 04:49:18;;;;;;;0.10;0.00;;;;;;;5.38;100.00;98762.66;5073512;28;20063;-49
2022/02/15 04:52:21;;;;;;;0.10;0.10;;;;;;;5.36;100.00;98759.59;5073728;28;20056;-49
2022/02/15 04:55:24;;;;;;;0.15;0.15;;;;;;;5.34;100.00;98742.72;5073460;28;20063;-49
2022/02/15 04:58:30;;;;;;;0.17;0.13;;;;;;;5.32;100.00;98736.91;5073794;28;20047;-49
2022/02/15 05:01:33;;;;;;;26.67;1.10;;;;;;;5.41;100.00;98716.78;5073530;28;20047;-49
2022/02/15 05:04:49;;;;;;;0.20;0.20;;;;;;;5.44;100.00;98722.13;5060847;28;20064;-49
2022/02/15 05:07:52;;;;;;;1.85;0.30;;;;;;;5.51;100.00;98727.31;5062773;28;20044;-49
2022/02/15 05:10:55;;;;;;;0.30;0.30;;;;;;;5.60;100.00;98712.69;5073027;28;20384;-49
2022/02/15 05:13:58;;;;;;;0.75;0.38;;;;;;;5.74;100.00;98715.50;5073342;28;20055;-49
2022/02/15 05:17:02;;;;;;;0.17;0.17;;;;;;;5.85;100.00;98704.72;5073155;28;20043;-49
2022/02/15 05:20:06;;;;;;;0.20;0.20;;;;;;;5.97;100.00;98698.19;5073252;28;20060;-49
2022/02/15 05:23:09;;;;;;;0.30;0.30;;;;;;;6.05;100.00;98699.34;5073185;28;20063;-49
2022/02/15 05:26:13;;;;;;;0.15;0.15;;;;;;;6.13;100.00;98696.22;5073044;28;20055;-49
2022/02/15 05:29:16;;;;;;;0.20;0.20;;;;;;;6.16;100.00;98698.78;5073125;28;20047;-49
2022/02/15 05:32:20;;;;;;;0.20;0.20;;;;;;;6.21;100.00;98694.59;5072831;28;20060;-49
2022/02/15 05:35:23;;;;;;;7.22;0.40;;;;;;;6.26;100.00;98682.91;5072821;28;20043;-49
2022/02/15 05:38:27;;;;;;;1.58;0.30;;;;;;;6.23;100.00;98679.06;5072614;28;20051;-49
2022/02/15 05:41:30;;;;;;;0.15;0.15;;;;;;;6.20;100.00;98660.66;5072513;28;20051;-49
2022/02/15 05:44:33;;;;;;;0.10;0.10;;;;;;;6.19;100.00;98664.69;5073209;28;20047;-49
2022/02/15 05:47:37;;;;;;;1.33;0.32;;;;;;;6.32;100.00;98651.34;5072804;28;20048;-49
2022/02/15 05:50:50;;;;;;;0.10;0.10;;;;;;;6.39;100.00;98641.91;5072255;28;20055;-49
2022/02/15 05:53:53;;;;;;;0.10;0.10;;;;;;;6.41;100.00;98622.84;5072458;28;20051;-49
2022/02/15 05:56:57;;;;;;;0.10;0.10;;;;;;;6.49;100.00;98633.03;5072371;28;20056;-49
2022/02/15 06:00:02;;;;;;;0.10;0.10;;;;;;;6.48;100.00;98619.66;5072857;28;20052;-49
2022/02/15 06:04:09;;;;;;;0.10;0.10;;;;;;;6.53;100.00;98619.00;5072878;28;20059;-49
2022/02/15 06:06:28;;;;;;;0.10;0.10;;;;;;;6.59;100.00;98614.31;5072309;28;20533;-49
2022/02/15 06:09:32;;;;;;;0.10;0.10;;;;;;;6.66;100.00;98592.59;5072799;28;20059;-49
2022/02/15 06:12:36;;;;;;;0.38;0.32;;;;;;;6.75;100.00;98591.72;5072671;28;20052;-49
2022/02/15 06:15:39;;;;;;;0.10;0.10;;;;;;;6.67;100.00;98587.81;5071806;28;20043;-49
2022/02/15 06:18:42;;;;;;;0.10;0.10;;;;;;;6.75;100.00;98583.41;5072618;28;20396;-49
2022/02/15 06:21:47;;;;;;;1.27;0.90;;;;;;;6.79;100.00;98572.91;5071598;28;20056;-49
2022/02/15 06:24:51;;;;;;;0.35;0.35;;;;;;;6.84;100.00;98563.94;5075328;28;20067;-49
2022/02/15 06:27:55;;;;;;;12.82;1.98;;;;;;;6.92;100.00;98559.50;5075249;28;20059;-49
2022/02/15 06:30:59;;;;;;;5.60;1.27;;;;;;;6.93;100.00;98552.72;5076424;28;20047;-49
2022/02/15 06:34:04;;;;;;;0.25;0.25;;;;;;;7.01;100.00;98556.63;5076398;28;20063;-49
2022/02/15 06:37:08;;;;;;;6.32;1.13;;;;;;;7.08;100.00;98561.72;5076288;28;20047;-49
2022/02/15 06:40:13;;;;;;;2.17;0.50;;;;;;;7.17;100.00;98552.56;5076055;28;20385;-49
2022/02/15 06:43:17;;;;;;;4.97;1.27;;;;;;;7.19;100.00;98534.19;5076413;28;20400;-49
2022/02/15 06:46:20;;;;;;;10.68;1.25;;;;;;;7.23;100.00;98534.75;5075981;28;20048;-49
2022/02/15 06:49:24;;;;;;;0.45;0.45;;;;;;;7.17;100.00;98531.16;5075538;28;20115;-49
2022/02/15 06:52:28;;;;;;;0.52;0.52;;;;;;;7.22;100.00;98524.91;5076283;28;20047;-49
2022/02/15 06:55:31;;;;;;;7.13;1.90;;;;;;;7.30;100.00;98512.16;5076084;28;20052;-49
2022/02/15 06:58:35;;;;;;;1.30;0.85;;;;;;;7.29;100.00;98515.44;5075567;28;20044;-49
2022/02/15 07:01:40;;;;;;;11.02;0.85;;;;;;;7.29;100.00;98504.34;5075615;28;20412;-49
2022/02/15 07:04:43;;;;;;;0.20;0.20;;;;;;;7.29;100.00;98498.81;5075321;28;20051;-49
2022/02/15 07:07:47;;;;;;;0.13;0.13;;;;;;;7.35;100.00;98480.25;5075667;28;20043;-49
2022/02/15 07:10:54;;;;;;;0.20;0.20;;;;;;;7.31;100.00;98491.56;5075465;28;20044;-49
2022/02/15 07:13:57;;;;;;;0.10;0.10;;;;;;;7.31;100.00;98499.09;5074476;28;20051;-49
2022/02/15 07:17:01;;;;;;;1.00;0.20;;;;;;;7.33;100.00;98499.38;5074360;28;20067;-49
2022/02/15 07:20:06;;;;;;;0.10;0.10;;;;;;;7.39;100.00;98487.09;5074606;28;20047;-49
2022/02/15 07:23:10;;;;;;;0.20;0.20;;;;;;;7.46;100.00;98486.69;5074883;28;20055;-49
2022/02/15 07:26:14;;;;;;;0.10;0.10;;;;;;;7.52;100.00;98490.25;5073968;28;20310;-49
2022/02/15 07:29:17;;;;;;;0.20;0.20;;;;;;;7.57;100.00;98481.25;5074838;28;20052;-49
2022/02/15 07:32:24;;;;;;;8.77;0.55;;;;;;;7.60;100.00;98479.53;5074946;28;20051;-49
2022/02/15 07:35:27;;;;;;;4.20;0.77;;;;;;;7.60;100.00;98474.72;5073714;28;20385;-49
2022/02/15 07:38:31;;;;;;;0.47;0.22;;;;;;;7.63;100.00;98468.22;5075034;28;20506;-49
2022/02/15 07:41:34;;;;;;;2.45;0.77;;;;;;;7.71;100.00;98467.78;5074441;28;20071;-49
2022/02/15 07:44:38;;;;;;;0.30;0.30;;;;;;;7.79;100.00;98479.94;5074539;28;20071;-49
2022/02/15 07:47:42;;;;;;;0.55;0.50;;;;;;;7.85;100.00;98472.44;5074924;28;20048;-50
2022/02/15 07:50:45;;;;;;;2.38;0.35;;;;;;;7.89;100.00;98462.66;5074880;28;20067;-49
2022/02/15 07:53:49;;;;;;;1.15;0.57;;;;;;;7.93;100.00;98476.28;5074064;28;20114;-50
2022/02/15 07:56:52;;;;;;;0.57;0.20;;;;;;;7.99;100.00;98479.88;5074243;28;20044;-49
2022/02/15 07:59:56;;;;;;;1.17;0.82;;;;;;;8.01;100.00;98469.81;5074668;28;20499;-50
2022/02/15 08:02:59;;;;;;;6.40;0.80;;;;;;;8.08;100.00;98480.44;5074616;28;20067;-47
2022/02/15 08:06:03;;;;;;;1.20;0.63;;;;;;;8.05;100.00;98464.06;5074608;28;20048;-47
2022/02/15 08:09:14;;;;;;;0.52;0.45;;;;;;;8.12;100.00;98466.38;5074099;28;20055;-47
2022/02/15 08:12:19;;;;;;;3.00;0.40;;;;;;;8.19;100.00;98469.44;5073581;28;20052;-47
2022/02/15 08:15:23;;;;;;;0.55;0.20;;;;;;;8.15;100.00;98465.38;5074289;28;20051;-48
2022/02/15 09:18:58;;;;;;;6.05;1.05;;;;;;;8.68;100.00;98365.63;2520576;22;20501;-56
2022/02/15 09:22:03;;;;;;;0.20;0.20;;;;;;;8.71;100.00;98369.38;5013326;28;20052;-56
2022/02/15 09:25:10;;;;;;;0.63;0.38;;;;;;;8.74;100.00;98363.63;5013042;28;20049;-56
2022/02/15 09:28:13;;;;;;;0.52;0.30;;;;;;;8.76;100.00;98365.88;4995734;28;20069;-56
2022/02/15 09:31:17;;;;;;;0.75;0.47;;;;;;;8.80;100.00;98372.72;4992921;28;20049;-56
2022/02/15 09:34:23;;;;;;;0.80;0.30;;;;;;;8.88;100.00;98373.00;4993373;28;20045;-47
2022/02/15 09:37:27;;;;;;;0.60;0.40;;;;;;;8.87;100.00;98371.47;5003478;28;20401;-48
2022/02/15 09:40:30;;;;;;;0.15;0.15;;;;;;;8.88;100.00;98364.69;5012891;28;20057;-47
2022/02/15 09:43:37;;;;;;;1.00;0.40;;;;;;;8.90;100.00;98367.72;5012738;28;20060;-47
2022/02/15 09:46:44;;;;;;;1.65;0.70;;;;;;;8.91;100.00;98369.97;4995927;28;20118;-47
2022/02/15 09:49:49;;;;;;;0.22;0.22;;;;;;;8.96;100.00;98376.81;4992482;28;20150;-48
2022/02/15 09:52:53;;;;;;;1.05;0.22;;;;;;;8.94;100.00;98365.44;4993204;28;20057;-47
2022/02/15 09:55:57;;;;;;;6.50;0.75;;;;;;;8.96;100.00;98374.81;4992962;28;20057;-47
2022/02/15 09:59:00;;;;;;;0.73;0.10;;;;;;;8.98;100.00;98361.19;4992258;28;20058;-47
2022/02/15 10:02:06;;;;;;;0.30;0.20;;;;;;;9.01;100.00;98371.25;4992945;28;20394;-47
2022/02/15 10:05:15;;;;;;;0.10;0.10;;;;;;;9.06;100.00;98364.97;4992904;28;20513;-47
2022/02/15 10:08:31;;;;;;;0.17;0.17;;;;;;;9.11;100.00;98367.00;5001259;28;20049;-47
2022/02/15 10:11:37;;;;;;;0.30;0.30;;;;;;;9.14;100.00;98363.22;4992655;28;20053;-47
2022/02/15 10:14:43;;;;;;;1.15;0.20;;;;;;;9.16;100.00;98357.91;4992827;28;20398;-47
2022/02/15 10:17:46;;;;;;;0.90;0.43;;;;;;;9.22;100.00;98346.84;5006132;28;20045;-47
2022/02/15 10:20:55;;;;;;;0.40;0.30;;;;;;;9.24;100.00;98349.09;5012496;28;20497;-47
2022/02/15 10:23:58;;;;;;;0.15;0.13;;;;;;;9.28;100.00;98333.69;5012296;28;20117;-47
2022/02/15 10:27:07;;;;;;;0.70;0.32;;;;;;;9.31;100.00;98340.28;5004242;28;20061;-47
2022/02/15 10:30:12;;;;;;;0.95;0.30;;;;;;;9.31;100.00;98349.38;4992022;28;20049;-47
2022/02/15 10:33:17;;;;;;;9.23;0.20;;;;;;;9.29;100.00;98356.69;4992705;28;20053;-47
2022/02/15 10:36:21;;;;;;;2.10;0.75;;;;;;;9.32;100.00;98361.22;4980989;28;20057;-47
2022/02/15 10:39:56;;;;;;;2.25;0.32;;;;;;;9.34;100.00;98376.13;4992046;28;20058;-47
2022/02/15 10:42:59;;;;;;;2.20;0.40;;;;;;;9.38;100.00;98393.31;4992643;28;20501;-56
2022/02/15 10:46:19;;;;;;;0.30;0.30;;;;;;;9.38;100.00;98403.66;4992835;28;20521;-48
2022/02/15 10:49:23;;;;;;;0.20;0.20;;;;;;;9.37;100.00;98407.72;4992844;28;20054;-48
2022/02/15 10:52:27;;;;;;;1.98;0.43;;;;;;;9.31;100.00;98407.72;4992411;28;20053;-55
2022/02/15 10:55:31;;;;;;;3.45;0.90;;;;;;;9.31;100.00;98393.06;4992475;28;20053;-55
2022/02/15 10:58:35;;;;;;;0.32;0.15;;;;;;;9.31;100.00;98404.16;4992830;28;20682;-54
2022/02/15 11:01:41;;;;;;;0.20;0.20;;;;;;;9.29;100.00;98390.03;4992933;28;20049;-54
2022/02/15 11:04:46;;;;;;;0.38;0.20;;;;;;;9.29;100.00;98390.75;4992717;28;20054;-54
2022/02/15 11:07:50;;;;;;;0.68;0.30;;;;;;;9.36;100.00;98381.19;4992975;28;20482;-55
2022/02/15 11:11:07;;;;;;;0.45;0.20;;;;;;;9.43;100.00;98397.34;4996565;28;20065;-55
2022/02/15 11:14:11;;;;;;;0.15;0.15;;;;;;;9.48;100.00;98391.81;4996271;28;20057;-56
2022/02/15 11:17:15;;;;;;;7.38;0.80;;;;;;;9.71;100.00;98387.03;5002783;28;20053;-57
2022/02/15 11:20:21;;;;;;;0.68;0.20;;;;;;;9.90;100.00;98388.78;4995969;28;20053;-56
2022/02/15 11:23:27;;;;;;;2.35;0.70;;;;;;;10.00;100.00;98385.75;4996297;28;20058;-56
2022/02/15 11:26:32;;;;;;;0.40;0.40;;;;;;;10.06;100.00;98386.50;4995913;28;20126;-56
2022/02/15 11:29:35;;;;;;;0.63;0.57;;;;;;;10.11;100.00;98397.66;4995855;28;20379;-56
2022/02/15 11:32:47;;;;;;;2.97;1.00;;;;;;;10.09;100.00;98386.22;4995743;28;20057;-48
2022/02/15 11:35:55;;;;;;;0.68;0.52;;;;;;;10.06;100.00;98373.34;4995491;28;20053;-48
2022/02/15 11:39:01;;;;;;;2.55;0.90;;;;;;;10.02;100.00;98389.56;4995598;28;20049;-48
2022/02/15 11:42:16;;;;;;;9.70;1.20;;;;;;;10.09;100.00;98386.22;4995345;28;20057;-48
2022/02/15 11:45:29;;;;;;;6.22;1.80;;;;;;;10.07;100.00;98383.19;4995455;28;20053;-48
2022/02/15 11:48:39;;;;;;;2.15;0.55;;;;;;;10.01;100.00;98393.59;4995496;28;20053;-48
2022/02/15 11:51:45;;;;;;;2.83;0.82;;;;;;;10.04;100.00;98400.94;4994536;28;20395;-48
2022/02/15 11:54:49;;;;;;;1.92;1.00;;;;;;;10.08;100.00;98400.66;4995388;28;20065;-48
2022/02/15 11:57:52;;;;;;;9.98;1.83;;;;;;;10.12;100.00;98415.09;5009689;28;20057;-48
2022/02/15 12:00:57;;;;;;;0.30;0.30;;;;;;;10.20;100.00;98411.28;5014720;28;20069;-48
2022/02/15 12:04:00;;;;;;;0.70;0.70;;;;;;;10.40;100.00;98413.78;5014621;28;20061;-56
2022/02/15 12:07:04;;;;;;;0.65;0.57;;;;;;;10.55;100.00;98408.69;5013732;28;20053;-56
2022/02/15 12:10:09;;;;;;;4.88;0.47;;;;;;;10.68;100.00;98408.91;5013544;28;20053;-56
2022/02/15 12:13:14;;;;;;;2.03;1.08;;;;;;;10.75;100.00;98410.41;5014165;28;20061;-57
2022/02/15 12:16:18;;;;;;;2.65;0.45;;;;;;;10.78;100.00;98419.75;5013587;28;20512;-57
2022/02/15 12:19:25;;;;;;;7.75;0.45;;;;;;;10.86;100.00;98409.59;4994631;28;20053;-57
2022/02/15 12:22:28;;;;;;;7.55;1.02;;;;;;;10.99;100.00;98395.88;4993526;28;20057;-56
2022/02/15 12:25:43;;;;;;;1.08;0.40;;;;;;;11.09;100.00;98411.78;4994888;28;20494;-56
2022/02/15 12:28:56;;;;;;;1.10;0.63;;;;;;;11.21;100.00;98401.34;4994429;28;20040;-56
2022/02/15 12:32:04;;;;;;;0.90;0.63;;;;;;;11.27;100.00;98405.59;4994347;28;20052;-56
2022/02/15 12:35:09;;;;;;;0.38;0.38;;;;;;;11.21;100.00;98404.13;4994954;28;20057;-57
2022/02/15 12:38:13;;;;;;;1.70;0.57;;;;;;;11.19;100.00;98403.88;4994336;28;20061;-57
2022/02/15 12:41:19;;;;;;;0.60;0.28;;;;;;;11.15;100.00;98412.50;4993442;28;20501;-56
2022/02/15 12:44:23;;;;;;;1.75;0.43;;;;;;;11.11;100.00;98397.34;4994186;28;20584;-56
2022/02/15 12:47:28;;;;;;;0.20;0.10;;;;;;;11.10;100.00;98395.81;4994203;28;20057;-58
2022/02/15 12:50:32;;;;;;;3.20;0.55;;;;;;;11.14;100.00;98396.31;4994311;28;20053;-58
2022/02/15 12:53:36;;;;;;;8.68;0.93;;;;;;;11.02;100.00;98384.44;4994356;28;20053;-57
2022/02/15 12:56:40;;;;;;;7.38;1.45;;;;;;;10.95;100.00;98361.97;4993746;28;20057;-57
2022/02/15 12:59:43;;;;;;;3.05;0.88;;;;;;;10.94;100.00;98371.56;4994269;28;20053;-57
2022/02/15 13:02:50;;;;;;;0.63;0.43;;;;;;;10.86;100.00;98368.59;4994242;28;20069;-57
2022/02/15 13:05:53;;;;;;;0.73;0.43;;;;;;;10.85;100.00;98371.91;4993238;28;20509;-56
2022/02/15 13:08:57;;;;;;;0.45;0.28;;;;;;;10.86;100.00;98376.19;4994364;28;20470;-56
2022/02/15 13:12:01;;;;;;;1.50;1.02;;;;;;;10.88;100.00;98385.53;4994441;28;20053;-57
2022/02/15 13:15:05;;;;;;;3.63;0.75;;;;;;;10.90;100.00;98393.38;4994124;28;20069;-56
2022/02/15 13:18:09;;;;;;;2.22;0.82;;;;;;;10.93;100.00;98389.56;5009848;28;20048;-56
2022/02/15 13:21:22;;;;;;;8.10;1.20;;;;;;;10.96;100.00;98386.50;5012998;28;20049;-57
2022/02/15 13:24:26;;;;;;;7.53;0.60;;;;;;;11.01;100.00;98382.94;5013644;28;20049;-58
2022/02/15 13:27:30;;;;;;;1.77;0.98;;;;;;;10.96;100.00;98383.72;5001472;28;20053;-57
2022/02/15 13:30:34;;;;;;;6.97;0.63;;;;;;;10.85;100.00;98396.97;4994103;28;20053;-58
2022/02/15 13:33:43;;;;;;;3.15;1.63;;;;;;;10.77;100.00;98395.97;4993868;28;20049;-47
2022/02/15 13:36:47;;;;;;;4.63;0.47;;;;;;;10.71;100.00;98398.00;4993914;28;20076;-47
2022/02/15 13:39:50;;;;;;;0.65;0.38;;;;;;;10.80;100.00;98378.25;4999447;28;20048;-47
2022/02/15 13:42:55;;;;;;;4.47;0.77;;;;;;;10.86;100.00;98370.63;5012599;28;20049;-47
2022/02/15 13:45:59;;;;;;;1.95;0.50;;;;;;;10.86;100.00;98376.19;5012249;28;20064;-47
2022/02/15 13:49:03;;;;;;;15.10;1.00;;;;;;;10.86;100.00;98379.72;5012462;28;20052;-57
2022/02/15 13:52:06;;;;;;;0.82;0.30;;;;;;;10.86;100.00;98376.19;5012767;28;20052;-56
2022/02/15 13:55:11;;;;;;;1.40;0.68;;;;;;;10.80;100.00;98378.25;4992702;28;20482;-57
2022/02/15 13:58:14;;;;;;;3.60;0.63;;;;;;;10.68;100.00;98376.78;5010020;28;20057;-56
2022/02/15 14:01:20;;;;;;;4.95;1.40;;;;;;;10.58;100.00;98374.28;5012717;28;20045;-57
2022/02/15 14:04:26;;;;;;;2.00;0.93;;;;;;;10.57;100.00;98369.97;5012712;28;20121;-57
2022/02/15 14:07:30;;;;;;;5.78;0.80;;;;;;;10.50;100.00;98356.56;5001240;28;20406;-57
2022/02/15 14:10:33;;;;;;;2.25;0.95;;;;;;;10.50;100.00;98356.56;4992311;28;20042;-56
2022/02/15 14:13:37;;;;;;;0.95;0.55;;;;;;;10.58;100.00;98357.56;4981424;28;20419;-57
2022/02/15 14:19:56;;;;;;;3.78;0.75;;;;;;;10.63;100.00;98367.91;4981922;28;20524;-82
2022/02/15 14:23:00;;;;;;;6.15;0.75;;;;;;;10.60;100.00;98371.75;4981121;28;20511;-82
2022/02/15 14:26:07;;;;;;;9.70;2.28;;;;;;;10.57;100.00;98361.63;4978727;28;20397;-82
2022/02/15 14:29:11;;;;;;;18.63;0.57;;;;;;;10.50;100.00;98361.41;4972631;28;20058;-83
2022/02/15 14:32:15;;;;;;;6.60;0.52;;;;;;;10.46;100.00;98360.91;4963026;28;20047;-83
2022/02/15 14:35:19;;;;;;;0.90;0.50;;;;;;;10.42;100.00;98363.19;4964535;28;20059;-83
2022/02/15 14:38:26;;;;;;;3.88;0.75;;;;;;;10.50;100.00;98351.00;4983727;28;20058;-83
2022/02/15 14:41:33;;;;;;;2.67;0.77;;;;;;;10.50;100.00;98355.84;4982444;28;20057;-83
2022/02/15 14:44:38;;;;;;;4.68;0.65;;;;;;;10.49;100.00;98349.50;4986198;28;20049;-83
2022/02/15 14:47:42;;;;;;;3.22;0.80;;;;;;;10.58;100.00;98340.09;4988129;28;20057;-83
2022/02/15 14:50:46;;;;;;;10.50;0.43;;;;;;;10.57;100.00;98339.34;4987176;28;20058;-84
2022/02/15 14:53:53;;;;;;;1.27;0.70;;;;;;;10.51;100.00;98344.19;4987403;28;20053;-83
2022/02/15 14:57:00;;;;;;;6.57;0.73;;;;;;;10.62;100.00;98352.50;4986056;28;20062;-84
2022/02/15 15:00:05;;;;;;;20.50;1.42;;;;;;;10.64;100.00;98349.94;4987382;28;20073;-83
2022/02/15 15:03:08;;;;;;;0.60;0.60;;;;;;;10.67;100.00;98362.09;4987720;28;20058;-82
2022/02/15 15:06:12;;;;;;;0.75;0.22;;;;;;;10.62;100.00;98371.22;4988100;28;20050;-85
2022/02/15 15:09:21;;;;;;;3.28;0.47;;;;;;;10.63;100.00;98369.97;4988971;28;20075;-81
2022/02/15 15:12:25;;;;;;;3.30;0.73;;;;;;;10.62;100.00;98374.75;4989041;28;20058;-81
2022/02/15 15:15:29;;;;;;;5.60;0.70;;;;;;;10.59;100.00;98363.88;4990067;28;20065;-82
2022/02/15 15:18:36;;;;;;;2.33;0.55;;;;;;;10.50;100.00;98359.34;5042926;23;20057;-87
2022/02/15 15:21:42;;;;;;;1.75;0.52;;;;;;;10.50;100.00;98359.34;5020512;28;20435;-89
2022/02/15 15:24:46;;;;;;;6.82;0.52;;;;;;;10.45;100.00;98351.81;5019304;28;20053;-88
2022/02/15 15:27:53;;;;;;;2.72;0.80;;;;;;;10.39;100.00;98342.72;5021202;28;20056;-86
2022/02/15 15:30:56;;;;;;;0.85;0.77;;;;;;;10.30;100.00;98342.22;5007791;28;20056;-88
2022/02/15 15:34:00;;;;;;;3.35;1.15;;;;;;;10.32;100.00;98329.31;5019902;28;20048;-89